Date,TemperatureHighF,TemperatureAvgF,TemperatureLowF,DewpointHighF,DewpointAvgF,DewpointLowF,HumidityHigh,HumidityAvg,HumidityLow,PressureMaxIn,PressureMinIn,WindSpeedMaxMPH,WindSpeedAvgMPH,GustSpeedMaxMPH,PrecipitationSumIn
2013-1-1,35,28,19,32,23,10,88,82,69,28.79,28.59,6,0,6,0.00
2013-1-2,35,24,15,22,11,7,76,58,41,28.79,28.70,4,0,4,0.00
2013-1-3,44,30,20,26,15,11,75,56,38,28.94,28.79,5,0,5,0.00
2013-1-4,48,33,20,24,16,11,72,51,33,29.00,28.85,6,0,6,0.00
2013-1-5,42,35,25,26,21,11,67,56,45,28.85,28.70,8,1,8,0.00
2013-1-6,43,32,22,25,16,8,72,55,37,28.91,28.73,6,1,6,0.00
2013-1-7,50,36,20,23,16,8,66,47,33,28.88,28.67,5,1,5,0.00
2013-1-8,55,43,29,40,25,15,81,51,35,28.76,28.61,6,1,6,0.28
2013-1-9,56,49,44,48,36,26,89,63,39,28.94,28.76,8,1,8,0.00
2013-1-10,53,48,43,50,42,26,90,80,40,28.85,28.38,10,1,10,0.16
2013-1-11,66,55,45,46,39,34,89,59,34,28.44,28.32,8,2,8,0.00
2013-1-12,53,42,28,42,30,20,80,64,37,28.53,28.38,8,1,8,0.20
2013-1-13,28,22,16,22,13,5,80,67,58,28.88,28.50,0,0,0,0.00
2013-1-14,31,21,14,10,7,4,67,54,42,29.03,28.85,0,0,0,0.00
2013-1-15,33,24,17,13,9,6,64,53,40,28.88,28.70,0,0,0,0.00
2013-1-16,46,28,14,21,12,6,73,53,33,28.73,28.64,5,0,5,0.00
2013-1-17,47,33,24,31,17,12,75,54,37,29.03,28.70,5,1,6,0.00
2013-1-18,57,40,23,26,19,12,71,47,26,29.03,28.73,8,1,8,0.00
2013-1-19,67,48,35,32,24,16,63,41,26,28.76,28.61,9,1,9,0.00
2013-1-20,56,41,28,30,18,8,63,40,26,28.85,28.73,8,1,8,0.00
2013-1-21,37,27,20,12,6,3,49,42,34,28.97,28.82,9,2,9,0.00
2013-1-22,34,27,20,12,8,3,50,44,40,28.94,28.76,6,1,6,0.00
2013-1-23,60,38,22,32,20,10,63,48,35,28.85,28.70,6,0,6,0.00
2013-1-24,36,30,24,16,9,4,45,40,36,29.03,28.70,8,3,8,0.00
2013-1-25,50,36,27,25,19,9,73,51,35,28.85,28.67,6,1,6,0.00
2013-1-26,59,43,29,25,20,15,67,42,26,28.91,28.73,8,1,8,0.00
2013-1-27,55,48,40,49,37,20,82,68,35,28.73,28.50,8,3,8,0.00
2013-1-28,74,65,55,56,52,47,83,65,41,28.59,28.41,14,2,14,0.00
2013-1-29,68,59,48,58,52,45,89,78,60,28.41,28.05,9,1,9,3.66
2013-1-30,49,33,27,46,24,11,90,69,52,28.61,28.05,10,0,10,0.00
2013-1-31,44,26,12,24,12,-4,80,57,39,29.09,28.56,9,2,9,0.00
2013-2-1,35,23,10,11,2,-7,50,41,34,29.35,28.79,5,1,5,0.00
2013-2-2,54,36,25,27,17,6,63,46,36,28.97,28.70,8,1,8,0.00
2013-2-3,53,43,34,25,20,14,58,41,28,29.06,28.59,8,1,8,0.00
2013-2-4,64,48,33,36,26,18,56,41,32,28.73,28.47,10,1,10,0.00
2013-2-5,66,44,27,37,24,19,78,49,25,28.91,28.53,8,1,8,0.00
2013-2-6,60,45,30,31,26,19,66,47,32,29.12,28.61,8,2,8,0.00
2013-2-7,54,47,41,46,38,30,86,70,51,28.97,28.53,8,1,8,0.55
2013-2-8,50,40,33,34,25,21,79,59,37,30.30,28.76,7,2,7,0.00
2013-2-9,42,36,32,33,26,21,84,67,46,30.83,28.64,9,3,9,0.08
2013-2-10,65,49,37,54,32,17,93,60,26,30.92,28.47,10,2,10,0.12
2013-2-11,54,40,29,25,19,15,58,44,29,31.01,28.70,6,1,6,0.00
2013-2-12,46,36,26,27,22,16,75,57,38,31.01,28.79,6,0,6,0.00
2013-2-13,52,39,33,37,27,20,85,65,38,31.01,28.82,5,0,5,0.24
2013-2-14,58,45,32,29,23,16,58,42,31,31.01,28.79,6,1,6,0.00
2013-2-15,44,37,23,22,16,4,62,42,29,31.01,29.15,7,2,7,0.00
2013-2-16,40,31,23,17,12,4,64,46,35,31.01,29.29,6,1,6,0.00
2013-2-17,64,47,30,28,20,11,44,35,26,31.01,30.92,6,1,6,0.00
2013-2-18,57,47,32,47,31,16,79,54,41,31.01,30.80,10,2,10,0.04
2013-2-19,45,33,24,16,11,5,54,41,29,31.01,31.01,9,2,9,0.00
2013-2-20,35,27,24,10,5,2,41,38,33,31.01,31.01,6,1,6,0.00
2013-2-21,33,29,28,29,16,7,85,60,36,31.01,31.01,10,2,10,0.00
2013-2-22,36,28,22,30,18,10,86,67,45,31.01,31.01,0,0,0,0.08
2013-2-23,44,29,18,21,14,10,74,55,35,31.01,31.01,5,0,5,0.04
2013-2-24,55,40,22,28,21,11,69,48,35,31.01,31.01,8,2,8,0.00
2013-2-25,46,39,34,30,23,18,83,56,37,31.01,31.01,11,2,11,0.43
2013-2-26,35,33,32,31,29,28,87,85,81,31.01,17.72,10,0,10,0.12
2013-2-27,34,32,31,28,24,20,83,70,59,17.72,17.72,6,1,6,0.04
2013-2-28,34,31,28,22,19,16,69,60,54,17.72,17.72,6,2,6,0.00
2013-3-1,30,29,27,23,19,16,74,68,59,17.72,17.72,6,2,6,0.00
2013-3-2,36,27,21,20,13,8,74,56,40,17.72,17.72,6,2,6,0.00
2013-3-3,55,38,20,24,18,8,68,47,29,17.72,17.72,7,2,7,0.00
2013-3-4,66,49,38,38,29,19,70,46,33,17.72,17.72,8,2,8,0.00
2013-3-5,44,37,30,30,20,13,80,50,36,17.72,17.72,11,4,11,0.04
2013-3-6,48,35,26,20,14,9,52,43,32,17.72,17.72,9,2,9,0.00
2013-3-7,62,46,32,27,21,15,54,39,25,17.72,17.72,6,2,6,0.00
2013-3-8,59,47,36,31,26,24,64,46,34,17.72,17.72,8,3,8,0.00
2013-3-9,73,56,44,52,39,30,85,55,29,17.72,17.72,8,2,8,0.79
2013-3-10,60,48,32,53,42,27,91,82,51,17.72,17.72,8,1,8,1.06
2013-3-11,46,33,28,27,21,14,80,61,38,17.72,17.72,8,1,8,0.00
2013-3-12,57,40,26,25,19,14,64,45,27,17.72,17.72,8,2,8,0.00
2013-3-13,50,37,27,22,16,13,55,42,29,17.72,17.72,6,1,6,0.00
2013-3-14,74,50,29,35,25,14,59,39,24,17.72,17.72,10,1,10,0.00
2013-3-15,82,63,41,42,36,30,73,40,22,17.72,17.72,13,1,13,0.00
2013-3-16,66,57,43,42,34,29,59,43,34,17.72,17.72,10,3,10,0.00
2013-3-17,43,39,37,37,34,30,87,82,59,17.72,17.72,8,1,8,1.18
2013-3-18,55,43,34,39,32,20,89,68,35,17.72,17.72,9,1,9,0.00
2013-3-19,50,39,28,25,19,15,65,46,29,17.72,17.72,7,1,7,0.00
2013-3-20,47,36,27,27,15,5,77,46,28,17.72,17.72,10,2,10,0.00
2013-3-21,37,31,25,26,15,7,84,54,34,17.72,17.72,7,1,7,0.00
2013-3-22,38,34,30,31,28,26,86,81,75,17.72,17.72,6,1,6,0.24
2013-3-23,35,34,34,30,30,29,84,83,80,17.72,17.72,3,0,3,0.00
2013-6-10,80,76,72,63,62,62,70,63,55,17.72,17.72,0,0,0,0.00
2013-6-11,96,82,69,63,58,51,73,48,24,17.72,17.72,8,0,8,0.00
2013-6-12,79,71,71,62,61,57,74,71,47,17.72,17.72,8,1,8,0.00
2013-6-13,71,71,71,62,62,62,74,74,74,17.72,17.72,6,1,6,0.00
2013-6-14,71,71,71,62,62,62,74,74,74,17.72,17.72,6,1,6,0.00
2013-6-15,71,71,71,62,62,62,74,74,74,17.72,17.72,8,1,8,4.53
2013-10-19,58,48,42,47,40,-100,98,81,65,29.93,29.90,4,-30,0,0.00
2013-10-20,70,52,39,53,46,38,98,83,51,29.93,29.82,7,2,0,0.00
2013-10-21,58,48,37,51,46,37,98,91,70,30.03,29.91,7,1,0,0.00
2013-10-22,65,49,35,54,45,34,98,86,65,30.01,29.82,12,2,0,0.00
2013-10-23,57,44,34,48,42,34,98,90,63,30.10,29.97,4,1,0,0.00
2013-10-24,54,45,36,48,38,33,98,80,54,30.28,30.00,9,2,0,0.00
2013-10-25,60,43,27,41,35,26,98,76,46,30.33,30.01,7,2,0,0.00
2013-10-26,66,51,39,59,48,37,98,93,79,30.01,29.88,7,2,0,0.00
2013-10-27,68,49,32,50,43,31,98,82,49,29.93,29.79,5,1,0,0.00
2013-10-28,70,54,38,63,52,37,98,94,73,30.00,29.84,5,2,0,0.00
2013-10-29,65,60,53,64,59,53,98,98,98,29.98,29.81,6,3,0,1.86
2013-10-30,67,64,61,66,64,61,98,98,98,29.86,29.65,5,2,0,0.52
2013-10-31,69,59,48,69,59,48,98,98,98,29.64,29.28,7,3,0,0.37
2013-11-1,64,52,43,54,48,42,98,89,64,29.85,29.57,9,2,0,0.00
2013-11-2,57,46,35,49,44,34,98,93,72,30.09,29.84,10,2,0,0.00
2013-11-3,62,46,31,51,42,30,98,88,66,30.11,29.91,11,3,0,0.00
2013-11-4,63,53,48,57,52,48,98,96,82,30.05,29.90,7,3,0,0.00
2013-11-5,59,56,52,58,55,52,98,98,98,30.04,29.82,9,4,0,0.66
2013-11-6,59,46,37,59,45,37,98,98,98,30.20,29.76,8,3,0,0.48
2013-11-7,60,42,29,48,38,28,98,88,59,30.28,30.17,6,1,0,0.00
2013-11-8,66,55,33,52,44,32,98,69,49,30.20,29.91,10,3,0,0.00
2013-11-9,67,52,42,55,47,42,98,86,61,30.11,29.93,8,2,0,0.00
2013-11-10,66,50,37,48,43,37,98,81,48,30.24,30.10,10,1,0,0.00
2013-11-11,62,49,37,57,48,37,98,94,82,30.26,30.00,15,2,0,0.00
2013-11-12,37,30,25,37,26,22,98,87,69,30.57,30.26,13,6,0,0.00
2013-11-16,67,67,67,66,66,66,98,98,98,29.43,29.41,12,6,0,0.00
2013-11-17,72,65,49,70,53,32,98,68,38,29.88,29.31,21,8,0,0.00
2013-11-18,60,47,35,46,38,34,98,75,42,30.10,29.88,6,1,0,0.00
2013-11-19,58,45,33,41,36,32,98,72,49,30.10,29.90,11,5,0,0.00
2013-11-20,59,48,38,42,38,32,98,70,52,29.90,29.73,15,7,0,0.07
2013-11-21,53,50,46,52,48,42,98,93,65,30.05,29.82,9,3,0,1.01
2013-11-22,43,33,30,43,32,30,98,98,98,30.33,30.07,10,5,0,0.00
2013-11-23,39,30,18,30,24,14,98,80,61,30.47,30.32,11,5,0,0.00
2013-11-24,31,22,13,18,15,11,93,73,49,30.47,30.13,10,4,0,0.00
2013-11-25,37,32,28,35,27,17,98,85,64,30.13,29.93,8,2,0,0.00
2013-11-26,42,36,31,36,32,31,98,86,73,30.08,29.87,12,4,0,0.00
2013-11-27,38,25,17,31,18,14,86,74,53,30.17,30.03,7,3,0,0.00
2013-11-28,51,39,22,38,29,17,89,70,58,30.22,30.02,12,3,0,0.00
2013-11-29,51,38,23,39,32,22,98,80,62,30.28,30.09,7,3,0,0.00
2013-11-30,61,47,41,52,42,36,98,83,71,30.09,29.87,11,4,0,0.00
2013-12-1,51,44,38,50,43,37,98,98,98,29.90,29.65,2,1,0,0.00
2013-12-2,59,48,40,57,47,40,98,97,90,29.66,29.43,6,2,0,0.00
2013-12-3,63,51,40,62,50,39,98,97,91,29.44,29.32,7,4,0,0.00
2013-12-4,63,56,33,58,52,32,98,90,77,29.71,29.33,9,6,0,0.00
2013-12-5,31,24,18,30,23,18,98,96,90,30.06,29.70,8,4,0,0.00
2013-12-6,18,18,17,18,17,17,98,98,98,30.04,30.00,9,5,0,0.00
2013-12-10,36,21,5,26,17,5,98,87,63,30.15,30.02,7,1,0,0.08
2013-12-11,36,22,10,29,19,10,98,87,64,30.37,30.04,8,2,0,0.04
2013-12-12,43,25,9,28,19,9,98,80,53,30.38,30.03,9,2,0,0.07
2013-12-13,35,32,26,34,30,21,98,94,79,30.03,29.62,9,5,0,0.13
2013-12-14,34,30,26,34,30,25,98,98,98,29.97,29.59,10,3,0,0.04
2013-12-15,47,32,16,40,30,16,98,94,76,29.98,29.83,9,3,0,0.48
2013-12-16,61,44,33,46,39,32,98,83,54,29.90,29.78,9,2,0,0.00
2013-12-17,53,36,27,43,34,26,98,90,62,30.07,29.87,7,1,0,0.00
2013-12-18,62,43,26,48,38,26,98,83,53,30.06,29.71,11,4,0,0.00
2013-12-19,56,52,45,55,51,44,98,98,98,29.70,29.50,9,4,0,0.00
2013-12-20,60,44,31,59,43,31,98,98,98,29.64,29.48,8,3,0,0.01
2013-12-21,36,33,31,36,33,31,98,98,98,29.56,29.25,8,2,0,0.76
2013-12-22,36,28,24,35,28,23,98,98,98,30.09,29.42,10,5,0,0.00
2013-12-23,27,21,17,23,20,17,98,97,85,30.30,30.09,8,3,0,0.00
2013-12-28,56,44,26,43,38,26,98,80,58,29.98,29.69,8,3,0,0.00
2013-12-29,43,28,18,42,27,16,98,95,90,30.03,29.68,8,4,0,0.00
2013-12-30,38,22,10,23,16,7,93,77,54,30.07,29.95,6,2,0,0.00
2013-12-31,56,37,17,38,28,17,98,73,46,30.13,29.92,11,3,0,0.00
2014-1-1,49,36,20,38,32,20,98,87,64,29.92,29.66,12,4,0,0.00
2014-1-2,21,14,8,19,11,6,98,90,68,30.21,29.87,9,4,0,0.00